createdAt,value
2022-10-05T00:00:03.970Z,90.50
2022-10-05T00:01:03.961Z,90.60
2022-10-05T00:02:04.042Z,90.50
2022-10-05T00:03:03.963Z,90.30
2022-10-05T00:04:03.946Z,90.30
2022-10-05T00:05:03.971Z,90.50
2022-10-05T00:06:03.905Z,90.30
2022-10-05T00:07:03.907Z,90.60
2022-10-05T00:08:03.911Z,91.01
2022-10-05T00:09:03.878Z,90.91
2022-10-05T00:10:03.876Z,90.81
2022-10-05T00:11:03.871Z,90.81
2022-10-05T00:12:03.847Z,91.63
2022-10-05T00:13:03.860Z,91.42
2022-10-05T00:14:03.896Z,90.91
2022-10-05T00:15:03.826Z,91.31
2022-10-05T00:16:03.827Z,91.01
2022-10-05T00:17:03.880Z,91.01
2022-10-05T00:18:03.818Z,91.11
2022-10-05T00:19:03.787Z,91.52
2022-10-05T00:20:03.769Z,90.81
2022-10-05T00:21:03.765Z,91.01
2022-10-05T00:22:03.763Z,91.36
2022-10-05T00:23:03.777Z,90.81
2022-10-05T00:24:03.742Z,91.01
2022-10-05T00:25:03.730Z,91.16
2022-10-05T00:26:03.713Z,90.70
2022-10-05T00:27:04.717Z,90.95
2022-10-05T00:28:03.801Z,91.01
2022-10-05T00:29:03.687Z,91.56
2022-10-05T00:30:03.683Z,91.36
2022-10-05T00:31:03.674Z,91.36
2022-10-05T00:32:03.694Z,91.46
2022-10-05T00:33:03.678Z,91.36
2022-10-05T00:34:03.650Z,91.61
2022-10-05T00:35:03.639Z,92.38
2022-10-05T00:36:03.617Z,92.59
2022-10-05T00:37:03.623Z,92.59
2022-10-05T00:38:03.630Z,92.53
2022-10-05T00:39:03.600Z,92.12
2022-10-05T00:40:03.580Z,92.02
2022-10-05T00:41:03.578Z,92.22
2022-10-05T00:42:03.566Z,92.12
2022-10-05T00:43:03.582Z,91.91
2022-10-05T00:44:03.554Z,91.82
2022-10-05T00:45:03.537Z,92.22
2022-10-05T00:46:03.603Z,92.02
2022-10-05T00:47:03.534Z,91.91
2022-10-05T00:48:03.530Z,92.32
2022-10-05T00:49:03.496Z,92.43
2022-10-05T00:50:03.493Z,92.63
2022-10-05T00:51:03.473Z,92.32
2022-10-05T00:52:03.469Z,92.53
2022-10-05T00:53:03.480Z,92.68
2022-10-05T00:54:03.458Z,92.32
2022-10-05T00:55:03.428Z,92.88
2022-10-05T00:56:03.423Z,92.74
2022-10-05T00:57:03.410Z,92.74
2022-10-05T00:58:03.422Z,92.88
2022-10-05T00:59:03.398Z,92.83
2022-10-05T01:00:03.390Z,93.04
2022-10-05T01:01:03.425Z,93.08
2022-10-05T01:02:03.428Z,92.78
2022-10-05T01:03:03.378Z,92.74
2022-10-05T01:04:03.350Z,93.35
2022-10-05T01:05:03.342Z,92.74
2022-10-05T01:06:03.326Z,93.15
2022-10-05T01:07:03.316Z,92.74
2022-10-05T01:08:03.335Z,92.83
2022-10-05T01:09:03.296Z,93.15
2022-10-05T01:10:03.289Z,93.15
2022-10-05T01:11:03.272Z,93.04
2022-10-05T01:12:03.267Z,92.83
2022-10-05T01:13:03.281Z,93.19
2022-10-05T01:14:03.251Z,92.83
2022-10-05T01:15:03.244Z,92.83
2022-10-05T01:16:03.268Z,93.15
2022-10-05T01:17:03.240Z,93.29
2022-10-05T01:18:03.226Z,93.49
2022-10-05T01:19:03.190Z,93.49
2022-10-05T01:20:03.198Z,93.25
2022-10-05T01:21:03.190Z,93.25
2022-10-05T01:22:03.177Z,93.76
2022-10-05T01:23:03.165Z,93.80
2022-10-05T01:24:03.157Z,94.32
2022-10-05T01:25:03.149Z,94.32
2022-10-05T01:26:03.139Z,94.11
2022-10-05T01:27:03.124Z,94.11
2022-10-05T01:28:03.186Z,94.11
2022-10-05T01:29:03.107Z,94.42
2022-10-05T01:30:03.102Z,94.01
2022-10-05T01:31:03.082Z,94.11
2022-10-05T01:32:03.074Z,94.11
2022-10-05T01:33:03.081Z,94.11
2022-10-05T01:34:05.723Z,94.11
2022-10-05T01:35:03.052Z,94.42
2022-10-05T01:36:03.033Z,94.42
2022-10-05T01:37:03.028Z,93.80
2022-10-05T01:38:03.035Z,94.32
2022-10-05T01:39:03.011Z,93.85
2022-10-05T01:40:03.012Z,93.80
2022-10-05T01:41:02.987Z,94.32
2022-10-05T01:42:02.973Z,94.46
2022-10-05T01:43:02.991Z,94.05
2022-10-05T01:44:02.961Z,94.56
2022-10-05T01:45:02.956Z,94.15
2022-10-05T01:46:03.007Z,94.26
2022-10-05T01:47:02.928Z,94.26
2022-10-05T01:48:02.935Z,94.15
2022-10-05T01:49:02.913Z,94.36
2022-10-05T01:50:02.893Z,94.36
2022-10-05T01:51:02.891Z,94.05
2022-10-05T01:52:02.892Z,94.30
2022-10-05T01:53:02.892Z,93.99
2022-10-05T01:54:02.861Z,94.30
2022-10-05T01:55:02.856Z,93.89
2022-10-05T01:56:02.840Z,94.04
2022-10-05T01:57:02.831Z,93.89
2022-10-05T01:58:02.838Z,94.30
2022-10-05T01:59:02.828Z,94.71
2022-10-05T02:00:02.798Z,94.61
2022-10-05T02:01:02.824Z,94.65
2022-10-05T02:02:02.869Z,94.65
2022-10-05T02:03:02.793Z,94.65
2022-10-05T02:04:02.765Z,94.65
2022-10-05T02:05:03.225Z,94.55
2022-10-05T02:06:02.752Z,94.65
2022-10-05T02:07:02.784Z,94.76
2022-10-05T02:08:02.751Z,94.45
2022-10-05T02:09:02.713Z,94.76
2022-10-05T02:10:02.701Z,94.65
2022-10-05T02:11:02.700Z,94.65
2022-10-05T02:12:02.695Z,94.45
2022-10-05T02:13:02.695Z,94.45
2022-10-05T02:14:02.657Z,94.76
2022-10-05T02:15:02.656Z,95.06
2022-10-05T02:16:02.723Z,95.06
2022-10-05T02:17:02.639Z,94.96
2022-10-05T02:18:02.636Z,94.85
2022-10-05T02:19:02.617Z,94.85
2022-10-05T02:20:02.607Z,94.85
2022-10-05T02:21:02.595Z,94.55
2022-10-05T02:22:02.582Z,94.34
2022-10-05T02:23:02.609Z,94.45
2022-10-05T02:24:02.571Z,94.65
2022-10-05T02:25:02.562Z,94.85
2022-10-05T02:26:02.539Z,95.06
2022-10-05T02:27:02.532Z,95.06
2022-10-05T02:28:02.606Z,94.96
2022-10-05T02:29:02.519Z,95.32
2022-10-05T02:30:02.512Z,95.57
2022-10-05T02:31:02.549Z,95.57
2022-10-05T02:32:02.488Z,95.12
2022-10-05T02:33:02.500Z,95.37
2022-10-05T02:34:02.467Z,95.43
2022-10-05T02:35:02.471Z,95.53
2022-10-05T02:36:02.456Z,95.32
2022-10-05T02:37:02.440Z,95.53
2022-10-05T02:38:02.438Z,95.69
2022-10-05T02:39:02.422Z,95.59
2022-10-05T02:40:02.405Z,95.64
2022-10-05T02:41:02.403Z,95.74
2022-10-05T02:42:02.395Z,95.53
2022-10-05T02:43:02.395Z,95.84
2022-10-05T02:44:02.368Z,95.64
2022-10-05T02:45:02.357Z,95.74
2022-10-05T02:46:02.347Z,95.74
2022-10-05T02:47:02.344Z,95.69
2022-10-05T02:48:02.377Z,95.64
2022-10-05T02:49:02.321Z,95.69
2022-10-05T02:50:02.301Z,95.49
2022-10-05T02:51:02.307Z,95.49
2022-10-05T02:52:02.288Z,95.49
2022-10-05T02:53:02.302Z,95.94
2022-10-05T02:54:02.258Z,95.64
2022-10-05T02:55:02.258Z,95.74
2022-10-05T02:56:02.250Z,95.53
2022-10-05T02:57:02.243Z,95.69
2022-10-05T02:58:02.244Z,95.59
2022-10-05T02:59:02.243Z,95.53
2022-10-05T03:00:02.207Z,95.74
2022-10-05T03:01:02.237Z,95.69
2022-10-05T03:02:02.219Z,95.69
2022-10-05T03:03:02.192Z,95.59
2022-10-05T03:04:02.166Z,95.79
2022-10-05T03:05:02.156Z,95.64
2022-10-05T03:06:02.155Z,95.59
2022-10-05T03:07:02.137Z,95.53
2022-10-05T03:08:02.148Z,95.79
2022-10-05T03:09:02.109Z,95.32
2022-10-05T03:10:02.094Z,95.28
2022-10-05T03:11:02.093Z,95.49
2022-10-05T03:12:02.073Z,95.69
2022-10-05T03:13:03.102Z,95.49
2022-10-05T03:14:02.074Z,96.10
2022-10-05T03:15:02.061Z,95.59
2022-10-05T03:16:02.109Z,95.49
2022-10-05T03:17:02.033Z,95.69
2022-10-05T03:18:02.049Z,95.07
2022-10-05T03:19:02.020Z,95.59
2022-10-05T03:20:02.009Z,95.59
2022-10-05T03:21:02.000Z,95.69
2022-10-05T03:22:01.987Z,95.69
2022-10-05T03:23:01.995Z,95.49
2022-10-05T03:24:01.958Z,95.49
2022-10-05T03:25:01.958Z,95.49
2022-10-05T03:26:01.950Z,95.39
2022-10-05T03:27:01.933Z,95.69
2022-10-05T03:28:01.981Z,95.49
2022-10-05T03:29:01.926Z,95.28
2022-10-05T03:30:01.908Z,95.18
2022-10-05T03:31:01.974Z,95.39
2022-10-05T03:32:01.888Z,95.49
2022-10-05T03:33:01.901Z,94.81
2022-10-05T03:34:01.874Z,94.81
2022-10-05T03:35:01.862Z,94.81
2022-10-05T03:36:01.877Z,94.81
2022-10-05T03:37:01.834Z,94.71
2022-10-05T03:38:01.841Z,95.17
2022-10-05T03:39:01.820Z,95.23
2022-10-05T03:40:01.807Z,94.92
2022-10-05T03:41:01.800Z,95.12
2022-10-05T03:42:01.788Z,95.27
2022-10-05T03:43:01.806Z,95.57
2022-10-05T03:44:01.769Z,95.37
2022-10-05T03:45:01.758Z,95.57
2022-10-05T03:46:01.750Z,95.57
2022-10-05T03:47:01.741Z,95.47
2022-10-05T03:48:01.910Z,95.37
2022-10-05T03:49:01.719Z,95.37
2022-10-05T03:50:01.716Z,95.27
2022-10-05T03:51:01.710Z,95.27
2022-10-05T03:52:01.688Z,95.57
2022-10-05T03:53:01.701Z,94.85
2022-10-05T03:54:01.676Z,95.31
2022-10-05T03:55:01.672Z,95.31
2022-10-05T03:56:03.461Z,95.21
2022-10-05T03:57:02.648Z,95.42
2022-10-05T03:58:01.636Z,95.42
2022-10-05T03:59:01.657Z,95.42
2022-10-05T04:00:01.615Z,95.42
2022-10-05T04:01:01.610Z,95.52
2022-10-05T04:02:01.596Z,95.62
2022-10-05T04:03:01.730Z,95.52
2022-10-05T04:04:01.583Z,95.77
2022-10-05T04:05:01.567Z,95.36
2022-10-05T04:06:01.561Z,96.39
2022-10-05T04:07:01.550Z,95.93
2022-10-05T04:08:01.539Z,96.23
2022-10-05T04:09:01.545Z,96.23
2022-10-05T04:10:01.527Z,96.23
2022-10-05T04:11:01.512Z,96.69
2022-10-05T04:12:01.505Z,96.69
2022-10-05T04:13:01.498Z,97.00
2022-10-05T04:14:01.512Z,96.48
2022-10-05T04:15:01.476Z,96.69
2022-10-05T04:16:01.504Z,96.34
2022-10-05T04:17:01.447Z,96.59
2022-10-05T04:18:01.468Z,96.23
2022-10-05T04:19:01.435Z,96.55
2022-10-05T04:20:01.426Z,96.55
2022-10-05T04:21:01.411Z,96.55
2022-10-05T04:22:01.409Z,96.48
2022-10-05T04:23:01.436Z,96.59
2022-10-05T04:24:01.386Z,96.85
2022-10-05T04:25:01.376Z,96.65
2022-10-05T04:26:01.366Z,96.65
2022-10-05T04:27:01.358Z,96.65
2022-10-05T04:28:01.443Z,96.95
2022-10-05T04:29:01.336Z,96.95
2022-10-05T04:30:01.340Z,96.55
2022-10-05T04:31:01.350Z,96.75
2022-10-05T04:32:01.313Z,96.55
2022-10-05T04:33:01.294Z,96.65
2022-10-05T04:34:01.305Z,96.44
2022-10-05T04:35:01.295Z,96.95
2022-10-05T04:36:01.271Z,97.06
2022-10-05T04:37:01.277Z,96.85
2022-10-05T04:38:01.255Z,96.55
2022-10-05T04:39:01.269Z,97.06
2022-10-05T04:40:01.228Z,97.22
2022-10-05T04:41:01.217Z,96.65
2022-10-05T04:42:01.211Z,96.85
2022-10-05T04:43:01.238Z,96.95
2022-10-05T04:44:01.205Z,97.06
2022-10-05T04:45:01.171Z,97.16
2022-10-05T04:46:01.181Z,97.37
2022-10-05T04:47:01.207Z,97.06
2022-10-05T04:48:01.169Z,97.12
2022-10-05T04:49:01.150Z,96.85
2022-10-05T04:50:01.128Z,97.42
2022-10-05T04:51:01.115Z,97.37
2022-10-05T04:52:02.108Z,97.47
2022-10-05T04:53:01.149Z,97.57
2022-10-05T04:54:01.090Z,97.47
2022-10-05T04:55:01.080Z,97.37
2022-10-05T04:56:01.075Z,97.57
2022-10-05T04:57:01.066Z,97.27
2022-10-05T04:58:01.082Z,97.27
2022-10-05T04:59:01.053Z,97.27
2022-10-05T05:00:01.044Z,96.85
2022-10-05T05:01:01.055Z,96.85
2022-10-05T05:02:01.028Z,96.75
2022-10-05T05:03:01.039Z,96.95
2022-10-05T05:04:01.065Z,97.47
2022-10-05T05:05:00.975Z,96.90
2022-10-05T05:06:17.318Z,97.57
2022-10-05T05:07:02.979Z,97.57
2022-10-05T05:08:00.980Z,96.85
2022-10-05T05:09:00.941Z,97.47
2022-10-05T05:10:00.937Z,96.85
2022-10-05T05:11:00.934Z,97.47
2022-10-05T05:12:00.928Z,97.00
2022-10-05T05:13:00.924Z,97.20
2022-10-05T05:14:00.909Z,96.90
2022-10-05T05:15:00.894Z,96.95
2022-10-05T05:16:00.979Z,97.20
2022-10-05T05:17:00.865Z,96.90
2022-10-05T05:18:00.885Z,97.16
2022-10-05T05:19:00.857Z,97.00
2022-10-05T05:20:00.850Z,97.00
2022-10-05T05:21:00.817Z,97.31
2022-10-05T05:22:00.814Z,97.16
2022-10-05T05:23:00.828Z,96.85
2022-10-05T05:24:00.797Z,97.16
2022-10-05T05:25:00.792Z,97.16
2022-10-05T05:26:00.785Z,97.57
2022-10-05T05:27:00.771Z,97.16
2022-10-05T05:28:00.837Z,97.16
2022-10-05T05:29:00.748Z,97.20
2022-10-05T05:30:00.739Z,97.20
2022-10-05T05:31:00.807Z,96.90
2022-10-05T05:32:00.723Z,96.95
2022-10-05T05:33:00.720Z,97.57
2022-10-05T05:34:00.700Z,97.47
2022-10-05T05:35:00.692Z,97.10
2022-10-05T05:36:00.678Z,97.62
2022-10-05T05:37:00.662Z,97.62
2022-10-05T05:38:00.677Z,97.47
2022-10-05T05:39:00.657Z,97.62
2022-10-05T05:40:00.642Z,96.95
2022-10-05T05:41:00.632Z,97.27
2022-10-05T05:42:00.623Z,96.90
2022-10-05T05:43:00.625Z,97.20
2022-10-05T05:44:00.605Z,97.16
2022-10-05T05:45:00.598Z,97.47
2022-10-05T05:46:00.588Z,97.62
2022-10-05T05:47:05.028Z,96.90
2022-10-05T05:48:01.585Z,96.95
2022-10-05T05:49:00.549Z,97.47
2022-10-05T05:50:06.337Z,96.85
2022-10-05T05:51:02.530Z,97.16
2022-10-05T05:52:00.519Z,96.95
2022-10-05T05:53:00.533Z,97.16
2022-10-05T05:54:00.507Z,97.27
2022-10-05T05:55:00.492Z,97.27
2022-10-05T05:56:00.482Z,96.91
2022-10-05T05:57:00.476Z,96.91
2022-10-05T05:58:00.485Z,96.95
2022-10-05T05:59:00.456Z,97.42
2022-10-05T06:00:01.452Z,97.42
2022-10-05T06:01:00.446Z,97.42
2022-10-05T06:02:00.498Z,97.63
2022-10-05T06:03:00.642Z,97.07
2022-10-05T06:04:00.411Z,97.48
2022-10-05T06:05:00.399Z,97.38
2022-10-05T06:06:00.469Z,97.38
2022-10-05T06:07:00.386Z,97.38
2022-10-05T06:08:00.385Z,97.48
2022-10-05T06:09:00.365Z,97.95
2022-10-05T06:10:00.351Z,97.64
2022-10-05T06:11:00.342Z,98.05
2022-10-05T06:12:00.326Z,98.16
2022-10-05T06:13:01.826Z,97.74
2022-10-05T06:14:01.310Z,97.64
2022-10-05T06:15:00.319Z,97.85
2022-10-05T06:16:00.317Z,98.00
2022-10-05T06:17:00.278Z,98.11
2022-10-05T06:18:00.293Z,97.80
2022-10-05T06:19:00.263Z,97.54
2022-10-05T06:20:05.019Z,97.49
2022-10-05T06:21:01.247Z,98.11
2022-10-05T06:22:00.234Z,98.27
2022-10-05T06:23:00.227Z,98.07
2022-10-05T06:24:00.210Z,98.07
2022-10-05T06:25:00.205Z,98.16
2022-10-05T06:26:00.196Z,98.47
2022-10-05T06:27:00.191Z,98.43
2022-10-05T06:28:00.274Z,98.02
2022-10-05T06:29:00.167Z,98.53
2022-10-05T06:30:00.150Z,98.33
2022-10-05T06:31:00.161Z,98.53
2022-10-05T06:32:00.204Z,98.02
2022-10-05T06:33:00.144Z,97.81
2022-10-05T06:34:00.117Z,98.02
2022-10-05T06:35:00.156Z,98.33
2022-10-05T06:36:00.084Z,98.12
2022-10-05T06:37:00.093Z,97.87
2022-10-05T06:38:00.116Z,97.87
2022-10-05T06:39:00.070Z,98.18
2022-10-05T06:40:01.260Z,97.97
2022-10-05T06:41:00.051Z,98.07
2022-10-05T06:42:00.032Z,97.46
2022-10-05T06:43:00.067Z,97.52
2022-10-05T06:44:00.006Z,97.52
2022-10-05T06:45:00.010Z,97.56
2022-10-05T06:46:00.082Z,97.66
2022-10-05T06:46:59.984Z,97.52
2022-10-05T06:48:04.380Z,98.03
2022-10-05T06:49:01.970Z,97.92
2022-10-05T06:49:59.950Z,97.52
2022-10-05T06:50:59.945Z,97.78
2022-10-05T06:51:59.937Z,97.57
2022-10-05T06:52:59.940Z,97.52
2022-10-05T06:53:59.918Z,97.67
2022-10-05T06:54:59.901Z,97.52
2022-10-05T06:55:59.895Z,97.67
2022-10-05T06:56:59.886Z,97.78
2022-10-05T06:57:59.893Z,97.47
2022-10-05T06:59:12.469Z,97.47
2022-10-05T06:59:59.853Z,97.37
2022-10-05T07:00:59.879Z,97.12
2022-10-05T07:01:59.853Z,97.02
2022-10-05T07:02:59.844Z,97.33
2022-10-05T07:03:59.811Z,96.61
2022-10-05T07:04:59.802Z,97.02
2022-10-05T07:05:59.793Z,96.92
2022-10-05T07:06:59.788Z,96.61
2022-10-05T07:07:59.798Z,96.46
2022-10-05T07:08:59.769Z,96.77
2022-10-05T07:09:59.754Z,96.26
2022-10-05T07:10:59.752Z,96.97
2022-10-05T07:12:03.590Z,96.77
2022-10-05T07:13:01.887Z,96.15
2022-10-05T07:13:59.718Z,96.05
2022-10-05T07:14:59.717Z,96.26
2022-10-05T07:15:59.747Z,95.90
2022-10-05T07:16:59.702Z,96.11
2022-10-05T07:17:59.696Z,96.01
2022-10-05T07:18:59.684Z,96.21
2022-10-05T07:19:59.662Z,96.11
2022-10-05T07:20:59.670Z,96.11
2022-10-05T07:21:59.685Z,95.80
2022-10-05T07:22:59.714Z,95.25
2022-10-05T07:23:59.618Z,95.04
2022-10-05T07:24:59.622Z,94.84
2022-10-05T07:25:59.633Z,94.84
2022-10-05T07:26:59.605Z,94.84
2022-10-05T07:27:59.636Z,94.33
2022-10-05T07:28:59.581Z,94.33
2022-10-05T07:29:59.547Z,94.12
2022-10-05T07:30:59.627Z,94.33
2022-10-05T07:31:59.533Z,94.29
2022-10-05T07:33:00.543Z,94.18
2022-10-05T07:33:59.523Z,94.18
2022-10-05T07:34:59.520Z,93.77
2022-10-05T07:35:59.507Z,94.08
2022-10-05T07:36:59.659Z,94.23
2022-10-05T07:37:59.478Z,93.98
2022-10-05T07:38:59.492Z,93.98
2022-10-05T07:40:00.907Z,94.08
2022-10-05T07:41:00.500Z,93.67
2022-10-05T07:41:59.434Z,93.57
2022-10-05T07:42:59.428Z,93.57
2022-10-05T07:44:03.380Z,93.12
2022-10-05T07:45:00.412Z,93.73
2022-10-05T07:45:59.449Z,93.52
2022-10-05T07:46:59.391Z,93.73
2022-10-05T07:47:59.385Z,93.73
2022-10-05T07:48:59.380Z,92.76
2022-10-05T07:49:59.338Z,93.12
2022-10-05T07:50:59.344Z,92.81
2022-10-05T07:51:59.360Z,92.50
2022-10-05T07:52:59.321Z,92.50
2022-10-05T07:53:59.321Z,92.61
2022-10-05T07:54:59.303Z,92.50
2022-10-05T07:55:59.705Z,92.41
2022-10-05T07:56:59.285Z,92.50
2022-10-05T07:57:59.285Z,92.30
2022-10-05T07:58:59.259Z,92.41
2022-10-05T07:59:59.257Z,92.20
2022-10-05T08:00:59.240Z,91.89
2022-10-05T08:01:59.310Z,92.00
2022-10-05T08:02:59.366Z,91.79
2022-10-05T08:03:59.222Z,91.39
2022-10-05T08:04:59.207Z,92.00
2022-10-05T08:05:59.192Z,91.75
2022-10-05T08:06:59.186Z,91.89
2022-10-05T08:07:59.198Z,91.65
2022-10-05T08:08:59.170Z,91.44
2022-10-05T08:09:59.144Z,91.55
2022-10-05T08:10:59.157Z,91.24
2022-10-05T08:11:59.299Z,91.14
2022-10-05T08:12:59.139Z,91.44
2022-10-05T08:13:59.104Z,91.75
2022-10-05T08:14:59.107Z,92.16
2022-10-05T08:15:59.353Z,91.50
2022-10-05T08:16:59.107Z,91.24
2022-10-05T08:17:59.165Z,90.99
2022-10-05T08:18:59.066Z,90.79
2022-10-05T08:19:59.052Z,90.28
2022-10-05T08:20:59.047Z,90.08
2022-10-05T08:21:59.041Z,89.87
2022-10-05T08:22:59.046Z,90.18
2022-10-05T08:23:59.021Z,90.44
2022-10-05T08:24:59.009Z,89.22
2022-10-05T08:25:59.006Z,89.42
2022-10-05T08:26:58.993Z,89.01
2022-10-05T08:27:59.033Z,88.81
2022-10-05T08:28:58.978Z,88.87
2022-10-05T08:29:58.964Z,88.87
2022-10-05T08:30:59.018Z,88.67
2022-10-05T08:31:58.942Z,88.53
2022-10-05T08:32:58.949Z,88.36
2022-10-05T08:33:58.927Z,87.51
2022-10-05T08:34:58.950Z,87.92
2022-10-05T08:35:58.901Z,87.92
2022-10-05T08:36:58.892Z,87.30
2022-10-05T08:37:58.870Z,87.10
2022-10-05T08:38:58.892Z,87.37
2022-10-05T08:39:58.899Z,87.06
2022-10-05T08:40:58.848Z,87.16
2022-10-05T08:41:58.822Z,86.45
2022-10-05T08:42:58.907Z,86.35
2022-10-05T08:43:58.843Z,86.65
2022-10-05T08:44:58.809Z,86.35
2022-10-05T08:45:58.893Z,86.45
2022-10-05T08:46:58.792Z,86.21
2022-10-05T08:47:58.781Z,86.04
2022-10-05T08:48:58.790Z,85.60
2022-10-05T08:49:58.752Z,85.60
2022-10-05T08:50:58.754Z,84.88
2022-10-05T08:51:58.748Z,85.05
2022-10-05T08:52:58.729Z,85.09
2022-10-05T08:53:58.745Z,85.31
2022-10-05T08:54:58.708Z,84.74
2022-10-05T08:55:58.746Z,84.50
2022-10-05T08:56:58.708Z,84.80
2022-10-05T08:57:58.711Z,83.59
2022-10-05T08:58:58.689Z,83.14
2022-10-05T08:59:58.672Z,83.24
2022-10-05T09:00:58.739Z,82.78
2022-10-05T09:01:58.732Z,82.64
2022-10-05T09:02:58.715Z,82.33
2022-10-05T09:03:58.651Z,81.72
2022-10-05T09:04:58.624Z,81.72
2022-10-05T09:05:58.603Z,82.17
2022-10-05T09:06:58.614Z,81.35
2022-10-05T09:07:58.586Z,81.45
2022-10-05T09:08:58.594Z,82.06
2022-10-05T09:10:01.750Z,82.17
2022-10-05T09:10:58.557Z,82.03
2022-10-05T09:11:58.546Z,82.23
2022-10-05T09:12:58.544Z,81.82
2022-10-05T09:13:58.540Z,81.92
2022-10-05T09:15:23.861Z,82.43
2022-10-05T09:16:00.610Z,82.12
2022-10-05T09:16:58.497Z,81.78
2022-10-05T09:17:58.483Z,81.58
2022-10-05T09:18:58.505Z,81.38
2022-10-05T09:19:58.470Z,81.72
2022-10-05T09:20:58.457Z,81.82
2022-10-05T09:21:58.503Z,82.19
2022-10-05T09:22:58.436Z,81.48
2022-10-05T09:23:58.438Z,81.07
2022-10-05T09:24:58.411Z,81.24
2022-10-05T09:25:58.408Z,81.85
2022-10-05T09:26:58.413Z,80.63
2022-10-05T09:27:58.436Z,81.13
2022-10-05T09:28:58.393Z,80.22
2022-10-05T09:29:58.361Z,79.82
2022-10-05T09:30:58.396Z,80.12
2022-10-05T09:31:58.342Z,80.63
2022-10-05T09:32:58.332Z,80.66
2022-10-05T09:33:58.337Z,80.12
2022-10-05T09:34:58.318Z,79.96
2022-10-05T09:35:58.304Z,80.06
2022-10-05T09:36:58.303Z,80.26
2022-10-05T09:37:58.309Z,80.06
2022-10-05T09:38:58.296Z,81.38
2022-10-05T09:40:01.314Z,80.97
2022-10-05T09:40:59.265Z,81.07
2022-10-05T09:41:58.252Z,81.07
2022-10-05T09:42:58.234Z,81.78
2022-10-05T09:43:58.251Z,80.87
2022-10-05T09:44:58.213Z,80.66
2022-10-05T09:45:58.231Z,81.27
2022-10-05T09:46:58.215Z,81.13
2022-10-05T09:47:58.218Z,81.04
2022-10-05T09:48:58.184Z,80.83
2022-10-05T09:49:58.174Z,81.13
2022-10-05T09:50:58.171Z,81.20
2022-10-05T09:51:58.160Z,80.59
2022-10-05T09:52:58.166Z,80.59
2022-10-05T09:53:58.135Z,80.59
2022-10-05T09:54:58.130Z,79.88
2022-10-05T09:55:58.118Z,79.74
2022-10-05T09:56:58.117Z,79.54
2022-10-05T09:57:58.118Z,78.93
2022-10-05T09:58:58.089Z,79.44
2022-10-05T09:59:58.120Z,79.13
2022-10-05T10:01:08.996Z,79.54
2022-10-05T10:01:59.099Z,79.44
2022-10-05T10:02:58.265Z,79.13
2022-10-05T10:03:58.037Z,79.30
2022-10-05T10:04:58.022Z,79.50
2022-10-05T10:05:58.059Z,79.26
2022-10-05T10:06:58.006Z,78.79
2022-10-05T10:07:58.027Z,79.00
2022-10-05T10:08:58.004Z,79.24
2022-10-05T10:09:57.987Z,79.30
2022-10-05T10:10:57.970Z,79.40
2022-10-05T10:11:57.954Z,79.10
2022-10-05T10:12:57.967Z,79.40
2022-10-05T10:13:57.946Z,79.30
2022-10-05T10:15:02.510Z,79.40
2022-10-05T10:15:59.019Z,79.50
2022-10-05T10:16:57.917Z,79.30
2022-10-05T10:17:57.916Z,79.06
2022-10-05T10:18:57.892Z,78.69
2022-10-05T10:19:57.887Z,78.25
2022-10-05T10:20:57.868Z,78.35
2022-10-05T10:21:57.868Z,78.45
2022-10-05T10:22:57.866Z,78.45
2022-10-05T10:23:57.836Z,78.21
2022-10-05T10:24:57.834Z,77.75
2022-10-05T10:25:57.815Z,77.44
2022-10-05T10:26:57.803Z,77.34
2022-10-05T10:27:57.901Z,77.24
2022-10-05T10:28:57.815Z,77.10
2022-10-05T10:29:57.786Z,76.79
2022-10-05T10:30:57.906Z,76.90
2022-10-05T10:31:57.758Z,76.70
2022-10-05T10:32:57.773Z,76.59
2022-10-05T10:33:57.777Z,76.29
2022-10-05T10:34:57.729Z,75.28
2022-10-05T10:35:59.560Z,74.98
2022-10-05T10:36:58.719Z,75.24
2022-10-05T10:37:57.741Z,75.45
2022-10-05T10:38:57.681Z,75.07
2022-10-05T10:39:57.671Z,74.84
2022-10-05T10:40:57.667Z,74.94
2022-10-05T10:41:57.666Z,74.33
2022-10-05T10:42:57.658Z,73.76
2022-10-05T10:43:57.629Z,74.27
2022-10-05T10:44:57.625Z,75.28
2022-10-05T10:45:57.660Z,74.94
2022-10-05T10:46:57.663Z,74.84
2022-10-05T10:47:57.595Z,75.01
2022-10-05T10:48:57.587Z,74.46
2022-10-05T10:49:57.575Z,73.19
2022-10-05T10:50:57.565Z,73.39
2022-10-05T10:51:57.553Z,72.99
2022-10-05T10:52:57.570Z,72.58
2022-10-05T10:53:57.643Z,72.28
2022-10-05T10:54:57.524Z,73.69
2022-10-05T10:55:57.510Z,73.19
2022-10-05T10:56:57.494Z,72.34
2022-10-05T10:57:57.529Z,72.55
2022-10-05T10:58:57.483Z,72.68
2022-10-05T10:59:57.475Z,72.34
2022-10-05T11:00:57.468Z,72.58
2022-10-05T11:01:57.579Z,71.47
2022-10-05T11:02:57.508Z,72.31
2022-10-05T11:03:57.473Z,72.58
2022-10-05T11:04:57.422Z,72.28
2022-10-05T11:05:57.417Z,72.08
2022-10-05T11:06:57.409Z,72.58
2022-10-05T11:07:57.383Z,72.38
2022-10-05T11:08:57.409Z,71.73
2022-10-05T11:09:57.374Z,71.53
2022-10-05T11:10:57.377Z,71.44
2022-10-05T11:11:57.339Z,71.73
2022-10-05T11:12:57.348Z,71.44
2022-10-05T11:13:57.356Z,71.23
2022-10-05T11:14:57.339Z,71.23
2022-10-05T11:15:57.362Z,71.94
2022-10-05T11:16:57.304Z,72.14
2022-10-05T11:17:57.298Z,72.88
2022-10-05T11:18:57.310Z,72.48
2022-10-05T11:20:05.198Z,72.48
2022-10-05T11:20:59.272Z,72.78
2022-10-05T11:21:57.254Z,72.78
2022-10-05T11:22:57.254Z,72.64
2022-10-05T11:23:57.238Z,72.28
2022-10-05T11:24:57.219Z,72.28
2022-10-05T11:25:57.216Z,72.78
2022-10-05T11:26:57.207Z,72.55
2022-10-05T11:27:57.210Z,72.44
2022-10-05T11:28:57.202Z,72.34
2022-10-05T11:29:57.175Z,72.68
2022-10-05T11:30:57.197Z,72.24
2022-10-05T11:31:57.247Z,71.94
2022-10-05T11:32:57.149Z,71.84
2022-10-05T11:33:57.143Z,72.88
2022-10-05T11:34:57.124Z,73.28
2022-10-05T11:35:57.102Z,72.64
2022-10-05T11:36:57.109Z,73.08
2022-10-05T11:37:57.098Z,72.78
2022-10-05T11:38:57.107Z,72.48
2022-10-05T11:39:57.075Z,72.95
2022-10-05T11:40:57.072Z,73.55
2022-10-05T11:41:57.065Z,73.15
2022-10-05T11:42:57.046Z,73.02
2022-10-05T11:43:57.056Z,73.22
2022-10-05T11:44:57.033Z,72.51
2022-10-05T11:45:57.038Z,72.11
2022-10-05T11:46:57.010Z,72.61
2022-10-05T11:47:57.002Z,72.17
2022-10-05T11:48:57.007Z,72.07
2022-10-05T11:49:56.985Z,71.77
2022-10-05T11:50:56.972Z,71.67
2022-10-05T11:51:56.951Z,71.67
2022-10-05T11:52:56.950Z,71.57
2022-10-05T11:53:56.957Z,71.47
2022-10-05T11:55:12.505Z,71.23
2022-10-05T11:55:58.911Z,71.17
2022-10-05T11:56:57.148Z,71.64
2022-10-05T11:57:56.902Z,71.97
2022-10-05T11:58:56.910Z,71.33
2022-10-05T11:59:56.872Z,70.73
2022-10-05T12:00:56.870Z,71.03
2022-10-05T12:01:56.859Z,70.12
2022-10-05T12:02:56.906Z,69.92
2022-10-05T12:03:56.914Z,70.66
2022-10-05T12:04:56.831Z,71.10
2022-10-05T12:05:56.819Z,71.30
2022-10-05T12:06:56.811Z,72.31
2022-10-05T12:07:56.798Z,71.94
2022-10-05T12:08:56.817Z,72.11
2022-10-05T12:09:56.784Z,72.11
2022-10-05T12:10:56.765Z,72.27
2022-10-05T12:11:58.025Z,71.77
2022-10-05T12:12:56.995Z,70.96
2022-10-05T12:13:56.756Z,71.30
2022-10-05T12:14:56.734Z,71.57
2022-10-05T12:15:56.733Z,71.80
2022-10-05T12:16:56.707Z,71.50
2022-10-05T12:17:56.700Z,71.60
2022-10-05T12:18:56.705Z,71.87
2022-10-05T12:19:56.671Z,71.26
2022-10-05T12:20:56.692Z,71.37
2022-10-05T12:21:56.664Z,71.03
2022-10-05T12:22:57.020Z,70.69
2022-10-05T12:23:56.645Z,71.30
2022-10-05T12:24:56.624Z,69.95
2022-10-05T12:25:56.618Z,69.05
2022-10-05T12:26:56.619Z,69.85
2022-10-05T12:27:56.628Z,69.89
2022-10-05T12:28:56.612Z,69.79
2022-10-05T12:29:56.596Z,69.89
2022-10-05T12:30:56.576Z,70.12
2022-10-05T12:31:56.557Z,71.03
2022-10-05T12:33:01.016Z,70.42
2022-10-05T12:33:58.576Z,71.10
2022-10-05T12:35:01.506Z,71.10
2022-10-05T12:35:58.527Z,71.30
2022-10-05T12:37:03.885Z,70.59
2022-10-05T12:37:58.505Z,70.39
2022-10-05T12:38:56.511Z,70.93
2022-10-05T12:39:56.489Z,70.29
2022-10-05T12:40:56.469Z,70.39
2022-10-05T12:41:57.477Z,70.39
2022-10-05T12:42:56.454Z,69.85
2022-10-05T12:43:56.461Z,70.46
2022-10-05T12:44:56.433Z,70.36
2022-10-05T12:45:56.549Z,69.85
2022-10-05T12:46:56.406Z,69.35
2022-10-05T12:47:56.439Z,69.32
2022-10-05T12:48:56.415Z,68.65
2022-10-05T12:49:56.383Z,69.15
2022-10-05T12:50:56.376Z,69.62
2022-10-05T12:51:56.361Z,69.29